createdAt,value
2023-02-22T00:00:09.757Z,0.46
2023-02-22T00:05:32.598Z,0.46
2023-02-22T00:10:38.578Z,0.43
2023-02-22T00:15:41.679Z,0.40
2023-02-22T00:20:44.994Z,0.38
2023-02-22T00:25:51.124Z,0.37
2023-02-22T00:30:55.185Z,0.35
2023-02-22T00:35:58.514Z,0.37
2023-02-22T00:41:01.316Z,0.36
2023-02-22T00:46:04.630Z,0.38
2023-02-22T00:51:07.635Z,0.42
2023-02-22T00:56:10.537Z,0.39
2023-02-22T01:01:13.415Z,0.34
2023-02-22T01:06:16.350Z,0.31
2023-02-22T01:11:19.287Z,0.31
2023-02-22T01:16:22.647Z,0.21
2023-02-22T01:21:25.467Z,0.15
2023-02-22T01:26:28.398Z,0.13
2023-02-22T01:31:31.351Z,0.06
2023-02-22T01:36:34.376Z,0.02
2023-02-22T01:41:39.127Z,-0.03
2023-02-22T01:46:42.025Z,-0.14
2023-02-22T01:51:49.005Z,-0.24
2023-02-22T01:57:06.182Z,-0.32
2023-02-22T02:02:09.213Z,-0.39
2023-02-22T02:07:15.055Z,-0.39
2023-02-22T02:12:20.105Z,-0.38
2023-02-22T02:17:23.755Z,-0.42
2023-02-22T02:22:38.664Z,-0.42
2023-02-22T02:28:17.343Z,-0.43
2023-02-22T02:33:33.866Z,-0.49
2023-02-22T02:38:45.860Z,-0.55
2023-02-22T02:44:17.675Z,-0.59
2023-02-22T02:49:27.175Z,-0.65
2023-02-22T02:54:31.094Z,-0.65
2023-02-22T02:59:39.486Z,-0.66
2023-02-22T03:05:20.284Z,-0.70
2023-02-22T03:10:41.303Z,-0.66
2023-02-22T03:15:58.166Z,-0.62
2023-02-22T03:21:19.982Z,-0.59
2023-02-22T03:26:35.890Z,-0.61
2023-02-22T03:31:44.748Z,-0.62
2023-02-22T03:36:56.956Z,-0.63
2023-02-22T03:42:12.457Z,-0.59
2023-02-22T03:47:23.143Z,-0.56
2023-02-22T03:52:26.365Z,-0.60
2023-02-22T03:57:32.224Z,-0.62
2023-02-22T04:02:35.382Z,-0.62
2023-02-22T04:13:16.882Z,-0.64
2023-02-22T04:18:20.103Z,-0.68
2023-02-22T04:23:22.787Z,-0.72
2023-02-22T04:28:25.589Z,-0.75
2023-02-22T04:33:28.387Z,-0.80
2023-02-22T04:38:31.189Z,-0.79
2023-02-22T04:43:34.097Z,-0.82
2023-02-22T04:48:36.997Z,-0.89
2023-02-22T04:53:39.800Z,-0.89
2023-02-22T04:58:42.704Z,-0.92
2023-02-22T05:03:45.630Z,-1.01
2023-02-22T05:08:48.506Z,-1.03
2023-02-22T05:13:51.434Z,-1.07
2023-02-22T05:18:54.418Z,-1.11
2023-02-22T05:23:57.692Z,-1.11
2023-02-22T05:29:00.776Z,-1.10
2023-02-22T05:34:03.850Z,-1.13
2023-02-22T05:39:06.692Z,-1.15
2023-02-22T05:44:09.549Z,-1.17
2023-02-22T05:49:12.454Z,-1.20
2023-02-22T05:54:15.357Z,-1.22
2023-02-22T05:59:18.361Z,-1.22
2023-02-22T06:04:21.271Z,-1.20
2023-02-22T06:09:32.648Z,-1.12
2023-02-22T06:14:37.410Z,-1.02
2023-02-22T06:19:40.668Z,-0.92
2023-02-22T06:24:43.498Z,-0.90
2023-02-22T06:29:47.495Z,-0.84
2023-02-22T06:34:50.258Z,-0.81
2023-02-22T06:39:53.190Z,-0.74
2023-02-22T06:44:56.219Z,-0.63
2023-02-22T06:50:01.078Z,-0.54
2023-02-22T06:55:04.185Z,-0.42
2023-02-22T07:00:07.797Z,-0.35
2023-02-22T07:05:12.898Z,-0.30
2023-02-22T07:10:28.606Z,-0.26
2023-02-22T07:15:33.650Z,-0.20
2023-02-22T07:20:37.647Z,-0.09
2023-02-22T07:25:40.485Z,0.04
2023-02-22T07:30:43.780Z,0.15
2023-02-22T07:35:48.031Z,0.24
2023-02-22T07:40:51.649Z,0.30
2023-02-22T07:45:57.359Z,0.29
2023-02-22T07:51:00.328Z,0.31
2023-02-22T07:56:05.769Z,0.39
2023-02-22T08:01:08.832Z,0.40
2023-02-22T08:06:11.614Z,0.43
2023-02-22T08:11:14.787Z,0.43
2023-02-22T08:16:17.649Z,0.49
2023-02-22T08:21:20.562Z,0.46
2023-02-22T08:26:25.455Z,0.42
2023-02-22T08:31:28.290Z,0.46
2023-02-22T08:36:33.019Z,0.41
2023-02-22T08:41:37.941Z,0.35
2023-02-22T08:46:41.937Z,0.40
2023-02-22T08:51:44.845Z,0.50
2023-02-22T08:56:47.743Z,0.63
2023-02-22T09:01:50.704Z,0.81
2023-02-22T09:06:53.529Z,0.89
2023-02-22T09:11:56.331Z,0.89
2023-02-22T09:16:59.182Z,0.90
2023-02-22T09:22:02.014Z,1.03
2023-02-22T09:27:04.919Z,1.17
2023-02-22T09:32:07.930Z,1.20
2023-02-22T09:37:10.935Z,1.32
2023-02-22T09:42:33.852Z,1.38
2023-02-22T09:47:46.661Z,1.34
2023-02-22T09:53:41.932Z,1.36
2023-02-22T09:58:47.685Z,1.43
2023-02-22T10:04:04.193Z,1.49
2023-02-22T10:09:10.085Z,1.60
2023-02-22T10:14:43.777Z,1.79
2023-02-22T10:20:16.281Z,1.88
2023-02-22T10:25:24.002Z,1.90
2023-02-22T10:30:38.803Z,1.86
2023-02-22T10:35:46.007Z,1.88
2023-02-22T10:40:56.546Z,1.93
2023-02-22T10:46:04.587Z,1.88
2023-02-22T10:51:09.471Z,1.88
2023-02-22T10:56:23.187Z,1.92
2023-02-22T11:01:29.281Z,1.99
2023-02-22T11:06:34.795Z,2.00
2023-02-22T11:11:40.580Z,2.02
2023-02-22T11:16:50.639Z,2.00
2023-02-22T11:21:57.331Z,2.03
2023-02-22T11:27:08.569Z,2.13
2023-02-22T11:32:15.236Z,2.20
2023-02-22T11:37:30.242Z,2.14
2023-02-22T11:42:33.820Z,2.09
2023-02-22T11:47:55.505Z,2.14
2023-02-22T11:53:34.034Z,2.20
2023-02-22T11:59:11.631Z,2.08
2023-02-22T12:04:17.166Z,1.98
2023-02-22T12:09:41.580Z,1.98
2023-02-22T12:14:51.252Z,1.97
2023-02-22T12:20:23.063Z,2.00
2023-02-22T12:25:31.603Z,2.05
2023-02-22T12:30:39.658Z,2.01
2023-02-22T12:35:49.468Z,2.11
2023-02-22T12:40:59.503Z,2.26
2023-02-22T12:46:16.258Z,2.38
2023-02-22T12:51:42.182Z,2.54
2023-02-22T12:57:14.336Z,2.68
2023-02-22T13:02:28.781Z,2.87
2023-02-22T13:07:58.953Z,2.87
2023-02-22T13:13:15.332Z,2.98
2023-02-22T13:18:21.465Z,3.05
2023-02-22T13:23:39.814Z,3.14
2023-02-22T13:29:05.651Z,3.09
2023-02-22T13:34:37.369Z,2.93
2023-02-22T13:40:03.197Z,2.75
2023-02-22T13:45:27.819Z,2.61
2023-02-22T13:50:58.439Z,2.47
2023-02-22T13:56:01.978Z,2.33
2023-02-22T14:01:04.783Z,2.23
2023-02-22T14:06:37.962Z,2.12
2023-02-22T14:11:43.112Z,1.98
2023-02-22T14:17:23.716Z,1.85
2023-02-22T14:22:29.877Z,1.76
2023-02-22T14:27:41.406Z,1.77
2023-02-22T14:32:44.720Z,1.80
2023-02-22T14:37:56.023Z,1.82
2023-02-22T14:43:09.733Z,1.83
2023-02-22T14:48:26.807Z,1.82
2023-02-22T14:54:06.324Z,1.73
2023-02-22T14:59:25.278Z,1.61
2023-02-22T15:04:31.186Z,1.48
2023-02-22T15:09:37.590Z,1.38
2023-02-22T15:14:44.668Z,1.37
2023-02-22T15:19:49.149Z,1.35
2023-02-22T15:25:01.778Z,1.31
2023-02-22T15:30:29.290Z,1.23
2023-02-22T15:35:33.696Z,1.11
2023-02-22T15:40:37.590Z,1.02
2023-02-22T15:45:43.183Z,0.93
2023-02-22T15:51:04.572Z,0.83
2023-02-22T15:56:12.367Z,0.74
2023-02-22T16:01:19.256Z,0.66
2023-02-22T16:06:35.643Z,0.58
2023-02-22T16:11:44.026Z,0.52
2023-02-22T16:16:46.916Z,0.50
2023-02-22T16:22:02.974Z,0.49
2023-02-22T16:27:15.962Z,0.46
2023-02-22T16:32:18.793Z,0.40
2023-02-22T16:37:23.577Z,0.30
2023-02-22T16:42:26.408Z,0.19
2023-02-22T16:47:29.267Z,0.16
2023-02-22T16:52:32.114Z,0.13
2023-02-22T16:57:35.298Z,0.10
2023-02-22T17:02:38.122Z,0.06
2023-02-22T17:07:42.321Z,-0.01
2023-02-22T17:12:50.777Z,-0.06
2023-02-22T17:17:55.023Z,-0.10
2023-02-22T17:23:09.155Z,-0.06
2023-02-22T17:28:13.123Z,-0.02
2023-02-22T17:33:19.817Z,-0.01
2023-02-22T17:38:23.080Z,-0.06
2023-02-22T17:43:26.180Z,-0.14
2023-02-22T17:48:29.241Z,-0.16
2023-02-22T17:53:32.253Z,-0.14
2023-02-22T17:58:35.494Z,-0.16
2023-02-22T18:03:40.306Z,-0.21
2023-02-22T18:08:43.209Z,-0.28
2023-02-22T18:13:46.828Z,-0.35
2023-02-22T18:18:49.778Z,-0.36
2023-02-22T18:23:52.899Z,-0.34
2023-02-22T18:28:55.952Z,-0.32
2023-02-22T18:33:58.792Z,-0.32
2023-02-22T18:39:01.657Z,-0.35
2023-02-22T18:44:06.526Z,-0.42
2023-02-22T18:49:13.843Z,-0.48
2023-02-22T18:54:16.715Z,-0.55
2023-02-22T18:59:19.574Z,-0.53
2023-02-22T19:04:22.369Z,-0.50
2023-02-22T19:09:25.426Z,-0.51
2023-02-22T19:14:28.330Z,-0.54
2023-02-22T19:19:31.660Z,-0.60
2023-02-22T19:24:35.162Z,-0.69
2023-02-22T19:29:40.084Z,-0.76
2023-02-22T19:34:44.096Z,-0.84
2023-02-22T19:39:46.943Z,-0.86
2023-02-22T19:44:52.711Z,-0.80
2023-02-22T19:49:59.679Z,-0.72
2023-02-22T19:55:03.537Z,-0.69
2023-02-22T20:00:12.824Z,-0.71
2023-02-22T20:05:16.692Z,-0.78
2023-02-22T20:10:19.837Z,-0.87
2023-02-22T20:15:24.164Z,-0.97
2023-02-22T20:20:29.653Z,-1.09
2023-02-22T20:25:35.601Z,-1.12
2023-02-22T20:30:38.532Z,-1.10
2023-02-22T20:35:41.415Z,-1.08
2023-02-22T20:40:46.868Z,-1.07
2023-02-22T20:45:49.712Z,-1.13
2023-02-22T20:50:52.783Z,-1.21
2023-02-22T20:55:57.632Z,-1.29
2023-02-22T21:01:05.597Z,-1.37
2023-02-22T21:06:11.874Z,-1.38
2023-02-22T21:11:17.871Z,-1.40
2023-02-22T21:16:22.906Z,-1.46
2023-02-22T21:21:26.843Z,-1.55
2023-02-22T21:26:32.416Z,-1.67
2023-02-22T21:31:36.865Z,-1.80
2023-02-22T21:36:39.918Z,-1.86
2023-02-22T21:41:42.721Z,-1.90
2023-02-22T21:46:48.865Z,-1.96
2023-02-22T21:51:52.619Z,-2.03
2023-02-22T21:56:55.621Z,-2.09
2023-02-22T22:01:58.527Z,-2.17
2023-02-22T22:07:04.004Z,-2.20
2023-02-22T22:12:10.678Z,-2.20
2023-02-22T22:17:13.481Z,-2.19
2023-02-22T22:22:16.480Z,-2.22
2023-02-22T22:27:19.281Z,-2.28
2023-02-22T22:32:22.251Z,-2.35
2023-02-22T22:37:28.162Z,-2.40
2023-02-22T22:42:31.069Z,-2.40
2023-02-22T22:47:33.851Z,-2.37
2023-02-22T22:52:37.892Z,-2.37
2023-02-22T22:57:41.700Z,-2.40
2023-02-22T23:02:48.874Z,-2.46
2023-02-22T23:07:57.381Z,-2.54
2023-02-22T23:13:00.256Z,-2.61
2023-02-22T23:18:03.986Z,-2.65
2023-02-22T23:23:07.664Z,-2.71
2023-02-22T23:28:14.900Z,-2.81
2023-02-22T23:33:17.815Z,-2.97
2023-02-22T23:38:20.614Z,-3.13
2023-02-22T23:43:25.721Z,-3.24
2023-02-22T23:48:30.184Z,-3.31
2023-02-22T23:53:33.118Z,-3.33
2023-02-22T23:58:41.064Z,-3.39
